sensor_id;sensor_type;location;lat;lon;timestamp;temperature;humidity
31369;DHT22;18004;48.416;10.066;2022-07-29T00:01:34;18.40;99.90
31369;DHT22;18004;48.416;10.066;2022-07-29T00:04:00;18.60;99.90
31369;DHT22;18004;48.416;10.066;2022-07-29T00:06:26;18.70;99.90
31369;DHT22;18004;48.416;10.066;2022-07-29T00:08:52;18.90;99.90
31369;DHT22;18004;48.416;10.066;2022-07-29T00:11:17;19.00;99.90
31369;DHT22;18004;48.416;10.066;2022-07-29T00:13:43;19.00;99.90
31369;DHT22;18004;48.416;10.066;2022-07-29T00:16:09;19.00;99.90
31369;DHT22;18004;48.416;10.066;2022-07-29T00:18:35;19.00;99.90
31369;DHT22;18004;48.416;10.066;2022-07-29T00:21:00;19.00;99.90
31369;DHT22;18004;48.416;10.066;2022-07-29T00:23:26;19.10;99.90
31369;DHT22;18004;48.416;10.066;2022-07-29T00:25:52;19.10;99.90
31369;DHT22;18004;48.416;10.066;2022-07-29T00:28:18;19.10;99.90
31369;DHT22;18004;48.416;10.066;2022-07-29T00:30:44;19.00;99.90
31369;DHT22;18004;48.416;10.066;2022-07-29T00:33:10;18.90;99.90
31369;DHT22;18004;48.416;10.066;2022-07-29T00:35:36;18.70;99.90
31369;DHT22;18004;48.416;10.066;2022-07-29T00:38:13;18.50;99.90
31369;DHT22;18004;48.416;10.066;2022-07-29T00:40:39;18.40;99.90
31369;DHT22;18004;48.416;10.066;2022-07-29T00:43:05;18.40;99.90
31369;DHT22;18004;48.416;10.066;2022-07-29T00:45:34;18.50;99.90
31369;DHT22;18004;48.416;10.066;2022-07-29T00:48:00;18.50;99.90
31369;DHT22;18004;48.416;10.066;2022-07-29T00:50:26;18.50;99.90
31369;DHT22;18004;48.416;10.066;2022-07-29T00:52:53;18.50;99.90
31369;DHT22;18004;48.416;10.066;2022-07-29T00:55:19;18.40;99.90
31369;DHT22;18004;48.416;10.066;2022-07-29T00:57:45;18.40;99.90
31369;DHT22;18004;48.416;10.066;2022-07-29T01:00:18;18.40;99.90
31369;DHT22;18004;48.416;10.066;2022-07-29T01:02:45;18.40;99.90
31369;DHT22;18004;48.416;10.066;2022-07-29T01:05:15;18.50;99.90
31369;DHT22;18004;48.416;10.066;2022-07-29T01:07:42;18.50;99.90
31369;DHT22;18004;48.416;10.066;2022-07-29T01:10:09;18.50;99.90
31369;DHT22;18004;48.416;10.066;2022-07-29T01:12:37;18.50;99.90
31369;DHT22;18004;48.416;10.066;2022-07-29T01:15:05;18.60;99.90
31369;DHT22;18004;48.416;10.066;2022-07-29T01:20:12;18.60;99.90
31369;DHT22;18004;48.416;10.066;2022-07-29T01:30:51;18.60;99.90
31369;DHT22;18004;48.416;10.066;2022-07-29T01:33:19;18.70;99.90
31369;DHT22;18004;48.416;10.066;2022-07-29T01:36:13;18.70;99.90
31369;DHT22;18004;48.416;10.066;2022-07-29T01:38:42;18.70;99.90
31369;DHT22;18004;48.416;10.066;2022-07-29T01:41:15;18.60;99.90
31369;DHT22;18004;48.416;10.066;2022-07-29T01:43:49;18.60;99.90
31369;DHT22;18004;48.416;10.066;2022-07-29T01:46:21;18.60;99.90
31369;DHT22;18004;48.416;10.066;2022-07-29T01:48:54;18.50;99.90
31369;DHT22;18004;48.416;10.066;2022-07-29T01:51:39;18.50;99.90
31369;DHT22;18004;48.416;10.066;2022-07-29T01:54:26;18.60;99.90
31369;DHT22;18004;48.416;10.066;2022-07-29T01:56:56;18.60;99.90
31369;DHT22;18004;48.416;10.066;2022-07-29T01:59:24;18.60;99.90
31369;DHT22;18004;48.416;10.066;2022-07-29T02:01:54;18.60;99.90
31369;DHT22;18004;48.416;10.066;2022-07-29T02:04:23;18.60;99.90
31369;DHT22;18004;48.416;10.066;2022-07-29T02:06:51;18.60;99.90
31369;DHT22;18004;48.416;10.066;2022-07-29T02:09:19;18.60;99.90
31369;DHT22;18004;48.416;10.066;2022-07-29T02:11:51;18.60;99.90
31369;DHT22;18004;48.416;10.066;2022-07-29T02:14:22;18.60;99.90
31369;DHT22;18004;48.416;10.066;2022-07-29T02:16:51;18.60;99.90
31369;DHT22;18004;48.416;10.066;2022-07-29T02:19:20;18.60;99.90
31369;DHT22;18004;48.416;10.066;2022-07-29T02:21:48;18.50;99.90
31369;DHT22;18004;48.416;10.066;2022-07-29T02:24:20;18.40;99.90
31369;DHT22;18004;48.416;10.066;2022-07-29T02:26:48;18.40;99.90
31369;DHT22;18004;48.416;10.066;2022-07-29T02:29:15;18.40;99.90
31369;DHT22;18004;48.416;10.066;2022-07-29T02:31:45;18.30;99.90
31369;DHT22;18004;48.416;10.066;2022-07-29T02:34:13;18.20;99.90
31369;DHT22;18004;48.416;10.066;2022-07-29T02:36:41;18.20;99.90
31369;DHT22;18004;48.416;10.066;2022-07-29T02:39:09;18.20;99.90
31369;DHT22;18004;48.416;10.066;2022-07-29T02:41:47;18.20;99.90
31369;DHT22;18004;48.416;10.066;2022-07-29T02:44:16;18.30;99.90
31369;DHT22;18004;48.416;10.066;2022-07-29T02:52:03;18.30;99.90
31369;DHT22;18004;48.416;10.066;2022-07-29T02:57:14;18.30;99.90
31369;DHT22;18004;48.416;10.066;2022-07-29T02:59:43;18.30;99.90
31369;DHT22;18004;48.416;10.066;2022-07-29T03:02:12;18.20;99.90
31369;DHT22;18004;48.416;10.066;2022-07-29T03:04:40;18.10;99.90
31369;DHT22;18004;48.416;10.066;2022-07-29T03:07:07;18.00;99.90
31369;DHT22;18004;48.416;10.066;2022-07-29T03:09:34;18.00;99.90
31369;DHT22;18004;48.416;10.066;2022-07-29T03:12:01;17.90;99.90
31369;DHT22;18004;48.416;10.066;2022-07-29T03:14:27;17.90;99.90
31369;DHT22;18004;48.416;10.066;2022-07-29T03:16:53;17.90;99.90
31369;DHT22;18004;48.416;10.066;2022-07-29T03:19:19;17.80;99.90
31369;DHT22;18004;48.416;10.066;2022-07-29T03:21:45;17.80;99.90
31369;DHT22;18004;48.416;10.066;2022-07-29T03:24:42;17.80;99.90
31369;DHT22;18004;48.416;10.066;2022-07-29T03:27:07;17.80;99.90
31369;DHT22;18004;48.416;10.066;2022-07-29T03:29:33;17.80;99.90
31369;DHT22;18004;48.416;10.066;2022-07-29T03:32:03;17.80;99.90
31369;DHT22;18004;48.416;10.066;2022-07-29T03:34:29;17.70;99.90
31369;DHT22;18004;48.416;10.066;2022-07-29T03:36:55;17.70;99.90
31369;DHT22;18004;48.416;10.066;2022-07-29T03:39:27;17.80;99.90
31369;DHT22;18004;48.416;10.066;2022-07-29T03:41:55;17.80;99.90
31369;DHT22;18004;48.416;10.066;2022-07-29T03:44:22;17.90;99.90
31369;DHT22;18004;48.416;10.066;2022-07-29T03:46:50;17.90;99.90
31369;DHT22;18004;48.416;10.066;2022-07-29T03:49:18;17.80;99.90
31369;DHT22;18004;48.416;10.066;2022-07-29T03:51:45;17.90;99.90
31369;DHT22;18004;48.416;10.066;2022-07-29T03:54:11;17.90;99.90
31369;DHT22;18004;48.416;10.066;2022-07-29T03:56:42;17.90;99.90
31369;DHT22;18004;48.416;10.066;2022-07-29T03:59:08;17.90;99.90
31369;DHT22;18004;48.416;10.066;2022-07-29T04:01:36;17.90;99.90
31369;DHT22;18004;48.416;10.066;2022-07-29T04:04:02;17.90;99.90
31369;DHT22;18004;48.416;10.066;2022-07-29T04:06:38;17.90;99.90
31369;DHT22;18004;48.416;10.066;2022-07-29T04:09:04;17.90;99.90
31369;DHT22;18004;48.416;10.066;2022-07-29T04:11:29;17.90;99.90
31369;DHT22;18004;48.416;10.066;2022-07-29T04:13:55;17.90;99.90
31369;DHT22;18004;48.416;10.066;2022-07-29T04:16:21;17.90;99.90
31369;DHT22;18004;48.416;10.066;2022-07-29T04:18:47;17.90;99.90
31369;DHT22;18004;48.416;10.066;2022-07-29T04:21:12;17.90;99.90
31369;DHT22;18004;48.416;10.066;2022-07-29T04:23:38;17.90;99.90
31369;DHT22;18004;48.416;10.066;2022-07-29T04:26:05;17.80;99.90
31369;DHT22;18004;48.416;10.066;2022-07-29T04:28:30;17.90;99.90
31369;DHT22;18004;48.416;10.066;2022-07-29T04:30:56;17.90;99.90
31369;DHT22;18004;48.416;10.066;2022-07-29T04:33:22;17.90;99.90
31369;DHT22;18004;48.416;10.066;2022-07-29T04:35:48;18.00;99.90
31369;DHT22;18004;48.416;10.066;2022-07-29T04:38:13;18.00;99.90
31369;DHT22;18004;48.416;10.066;2022-07-29T04:40:39;17.90;99.90
31369;DHT22;18004;48.416;10.066;2022-07-29T04:43:05;18.00;99.90
31369;DHT22;18004;48.416;10.066;2022-07-29T04:45:31;18.10;99.90
31369;DHT22;18004;48.416;10.066;2022-07-29T04:47:57;18.10;99.90
31369;DHT22;18004;48.416;10.066;2022-07-29T04:50:23;18.10;99.90
31369;DHT22;18004;48.416;10.066;2022-07-29T04:52:49;18.10;99.90
31369;DHT22;18004;48.416;10.066;2022-07-29T04:55:15;18.00;99.90
31369;DHT22;18004;48.416;10.066;2022-07-29T04:57:41;18.00;99.90
31369;DHT22;18004;48.416;10.066;2022-07-29T05:00:07;17.90;99.90
31369;DHT22;18004;48.416;10.066;2022-07-29T05:02:33;17.90;99.90
31369;DHT22;18004;48.416;10.066;2022-07-29T05:04:59;17.90;99.90
31369;DHT22;18004;48.416;10.066;2022-07-29T05:07:25;18.00;99.90
31369;DHT22;18004;48.416;10.066;2022-07-29T05:09:50;18.00;99.90
31369;DHT22;18004;48.416;10.066;2022-07-29T05:12:16;18.10;99.90
31369;DHT22;18004;48.416;10.066;2022-07-29T05:14:42;18.10;99.90
31369;DHT22;18004;48.416;10.066;2022-07-29T05:17:08;18.10;99.90
31369;DHT22;18004;48.416;10.066;2022-07-29T05:19:33;18.20;99.90
31369;DHT22;18004;48.416;10.066;2022-07-29T05:21:59;18.30;99.90
31369;DHT22;18004;48.416;10.066;2022-07-29T05:24:25;18.30;99.90
31369;DHT22;18004;48.416;10.066;2022-07-29T05:26:51;18.30;99.90
31369;DHT22;18004;48.416;10.066;2022-07-29T05:29:17;18.20;99.90
31369;DHT22;18004;48.416;10.066;2022-07-29T05:31:42;18.10;99.90
31369;DHT22;18004;48.416;10.066;2022-07-29T05:34:08;18.10;99.90
31369;DHT22;18004;48.416;10.066;2022-07-29T05:36:34;18.20;99.90
31369;DHT22;18004;48.416;10.066;2022-07-29T05:38:59;18.30;99.90
31369;DHT22;18004;48.416;10.066;2022-07-29T05:41:26;18.40;99.90
31369;DHT22;18004;48.416;10.066;2022-07-29T05:43:51;18.40;99.90
31369;DHT22;18004;48.416;10.066;2022-07-29T05:46:17;18.40;99.90
31369;DHT22;18004;48.416;10.066;2022-07-29T05:48:43;18.50;99.90
31369;DHT22;18004;48.416;10.066;2022-07-29T05:51:09;18.60;99.90
31369;DHT22;18004;48.416;10.066;2022-07-29T05:53:35;18.60;99.90
31369;DHT22;18004;48.416;10.066;2022-07-29T05:56:04;18.70;99.90
31369;DHT22;18004;48.416;10.066;2022-07-29T05:58:31;18.90;99.90
31369;DHT22;18004;48.416;10.066;2022-07-29T06:00:56;18.90;99.90
31369;DHT22;18004;48.416;10.066;2022-07-29T06:03:26;18.80;99.90
31369;DHT22;18004;48.416;10.066;2022-07-29T06:05:52;18.90;99.90
31369;DHT22;18004;48.416;10.066;2022-07-29T06:08:18;18.90;99.90
31369;DHT22;18004;48.416;10.066;2022-07-29T06:10:44;18.90;99.90
31369;DHT22;18004;48.416;10.066;2022-07-29T06:13:11;18.90;99.90
31369;DHT22;18004;48.416;10.066;2022-07-29T06:15:37;19.00;99.90
31369;DHT22;18004;48.416;10.066;2022-07-29T06:18:02;19.10;99.90
31369;DHT22;18004;48.416;10.066;2022-07-29T06:20:29;19.10;99.90
31369;DHT22;18004;48.416;10.066;2022-07-29T06:22:55;19.20;99.90
31369;DHT22;18004;48.416;10.066;2022-07-29T06:25:21;19.20;99.90
31369;DHT22;18004;48.416;10.066;2022-07-29T06:27:47;19.20;99.90
31369;DHT22;18004;48.416;10.066;2022-07-29T06:30:13;19.30;99.90
31369;DHT22;18004;48.416;10.066;2022-07-29T06:32:39;19.30;99.90
31369;DHT22;18004;48.416;10.066;2022-07-29T06:35:05;19.30;99.90
31369;DHT22;18004;48.416;10.066;2022-07-29T06:37:31;19.30;99.90
31369;DHT22;18004;48.416;10.066;2022-07-29T06:39:57;19.30;99.90
31369;DHT22;18004;48.416;10.066;2022-07-29T06:42:44;19.40;99.90
31369;DHT22;18004;48.416;10.066;2022-07-29T06:45:11;19.40;99.90
31369;DHT22;18004;48.416;10.066;2022-07-29T06:47:37;19.50;99.90
31369;DHT22;18004;48.416;10.066;2022-07-29T06:50:04;19.50;99.90
31369;DHT22;18004;48.416;10.066;2022-07-29T06:52:30;19.60;99.90
31369;DHT22;18004;48.416;10.066;2022-07-29T06:54:56;19.60;99.90
31369;DHT22;18004;48.416;10.066;2022-07-29T06:57:22;19.60;99.90
31369;DHT22;18004;48.416;10.066;2022-07-29T06:59:48;19.70;99.90
31369;DHT22;18004;48.416;10.066;2022-07-29T07:02:14;19.70;99.90
31369;DHT22;18004;48.416;10.066;2022-07-29T07:04:40;19.80;99.90
31369;DHT22;18004;48.416;10.066;2022-07-29T07:07:05;19.90;99.90
31369;DHT22;18004;48.416;10.066;2022-07-29T07:09:31;20.00;99.90
31369;DHT22;18004;48.416;10.066;2022-07-29T07:11:57;20.10;99.90
31369;DHT22;18004;48.416;10.066;2022-07-29T07:14:23;20.20;99.90
31369;DHT22;18004;48.416;10.066;2022-07-29T07:16:52;20.10;99.90
31369;DHT22;18004;48.416;10.066;2022-07-29T07:19:17;20.10;99.90
31369;DHT22;18004;48.416;10.066;2022-07-29T07:21:44;20.20;99.90
31369;DHT22;18004;48.416;10.066;2022-07-29T07:24:10;20.20;99.90
31369;DHT22;18004;48.416;10.066;2022-07-29T07:26:36;20.10;99.90
31369;DHT22;18004;48.416;10.066;2022-07-29T07:29:02;20.00;99.90
31369;DHT22;18004;48.416;10.066;2022-07-29T07:31:27;20.00;99.90
31369;DHT22;18004;48.416;10.066;2022-07-29T07:33:53;20.00;99.90
31369;DHT22;18004;48.416;10.066;2022-07-29T07:36:19;20.00;99.90
31369;DHT22;18004;48.416;10.066;2022-07-29T07:38:45;20.10;99.90
31369;DHT22;18004;48.416;10.066;2022-07-29T07:41:11;20.30;99.90
31369;DHT22;18004;48.416;10.066;2022-07-29T07:43:37;20.40;99.90
31369;DHT22;18004;48.416;10.066;2022-07-29T07:46:02;20.50;99.90
31369;DHT22;18004;48.416;10.066;2022-07-29T07:48:28;20.60;99.90
31369;DHT22;18004;48.416;10.066;2022-07-29T07:50:54;20.60;99.50
31369;DHT22;18004;48.416;10.066;2022-07-29T07:53:20;20.70;99.10
31369;DHT22;18004;48.416;10.066;2022-07-29T07:55:46;20.60;99.10
31369;DHT22;18004;48.416;10.066;2022-07-29T07:58:12;20.60;98.80
31369;DHT22;18004;48.416;10.066;2022-07-29T08:00:37;20.60;98.70
31369;DHT22;18004;48.416;10.066;2022-07-29T08:03:03;20.60;98.30
31369;DHT22;18004;48.416;10.066;2022-07-29T08:05:29;20.80;97.70
31369;DHT22;18004;48.416;10.066;2022-07-29T08:07:58;20.90;97.30
31369;DHT22;18004;48.416;10.066;2022-07-29T08:10:24;21.10;96.90
31369;DHT22;18004;48.416;10.066;2022-07-29T08:13:09;21.10;95.30
31369;DHT22;18004;48.416;10.066;2022-07-29T08:15:36;21.30;96.50
31369;DHT22;18004;48.416;10.066;2022-07-29T08:18:02;21.20;95.60
31369;DHT22;18004;48.416;10.066;2022-07-29T08:20:28;21.10;96.00
31369;DHT22;18004;48.416;10.066;2022-07-29T08:22:55;21.20;95.90
31369;DHT22;18004;48.416;10.066;2022-07-29T08:25:21;21.50;95.60
31369;DHT22;18004;48.416;10.066;2022-07-29T08:27:47;21.70;93.90
31369;DHT22;18004;48.416;10.066;2022-07-29T08:30:13;22.00;93.20
31369;DHT22;18004;48.416;10.066;2022-07-29T08:32:39;22.40;92.10
31369;DHT22;18004;48.416;10.066;2022-07-29T08:35:05;22.50;90.10
31369;DHT22;18004;48.416;10.066;2022-07-29T08:37:31;22.60;90.50
31369;DHT22;18004;48.416;10.066;2022-07-29T08:39:57;22.80;88.80
31369;DHT22;18004;48.416;10.066;2022-07-29T08:42:23;22.80;88.80
31369;DHT22;18004;48.416;10.066;2022-07-29T08:44:48;23.10;87.00
31369;DHT22;18004;48.416;10.066;2022-07-29T08:47:16;23.20;83.50
31369;DHT22;18004;48.416;10.066;2022-07-29T08:49:42;23.50;82.80
31369;DHT22;18004;48.416;10.066;2022-07-29T08:52:11;23.50;78.20
31369;DHT22;18004;48.416;10.066;2022-07-29T08:54:39;23.50;78.60
31369;DHT22;18004;48.416;10.066;2022-07-29T08:57:09;23.60;80.20
31369;DHT22;18004;48.416;10.066;2022-07-29T08:59:35;23.70;79.30
31369;DHT22;18004;48.416;10.066;2022-07-29T09:02:09;23.80;78.10
31369;DHT22;18004;48.416;10.066;2022-07-29T09:04:53;23.90;78.80
31369;DHT22;18004;48.416;10.066;2022-07-29T09:07:20;23.90;75.50
31369;DHT22;18004;48.416;10.066;2022-07-29T09:09:46;23.90;76.00
31369;DHT22;18004;48.416;10.066;2022-07-29T09:12:49;24.20;76.30
31369;DHT22;18004;48.416;10.066;2022-07-29T09:15:15;24.60;70.60
31369;DHT22;18004;48.416;10.066;2022-07-29T09:17:49;24.50;71.60
31369;DHT22;18004;48.416;10.066;2022-07-29T09:20:22;24.80;69.40
31369;DHT22;18004;48.416;10.066;2022-07-29T09:22:54;25.10;67.00
31369;DHT22;18004;48.416;10.066;2022-07-29T09:25:41;25.20;65.60
31369;DHT22;18004;48.416;10.066;2022-07-29T09:28:12;25.60;60.30
31369;DHT22;18004;48.416;10.066;2022-07-29T09:31:11;25.70;61.00
31369;DHT22;18004;48.416;10.066;2022-07-29T09:33:57;26.10;60.00
31369;DHT22;18004;48.416;10.066;2022-07-29T09:36:26;26.30;48.50
31369;DHT22;18004;48.416;10.066;2022-07-29T09:39:02;25.90;44.80
31369;DHT22;18004;48.416;10.066;2022-07-29T09:44:09;25.90;49.30
31369;DHT22;18004;48.416;10.066;2022-07-29T09:50:01;26.10;51.70
31369;DHT22;18004;48.416;10.066;2022-07-29T09:52:17;26.20;44.90
31369;DHT22;18004;48.416;10.066;2022-07-29T09:54:44;25.80;45.60
31369;DHT22;18004;48.416;10.066;2022-07-29T09:57:40;25.80;48.20
31369;DHT22;18004;48.416;10.066;2022-07-29T10:00:48;26.10;48.00
31369;DHT22;18004;48.416;10.066;2022-07-29T10:07:09;26.20;40.70
31369;DHT22;18004;48.416;10.066;2022-07-29T10:12:23;26.00;45.80
31369;DHT22;18004;48.416;10.066;2022-07-29T10:15:16;26.10;42.60
31369;DHT22;18004;48.416;10.066;2022-07-29T10:17:53;26.20;38.80
31369;DHT22;18004;48.416;10.066;2022-07-29T10:20:21;26.10;38.70
31369;DHT22;18004;48.416;10.066;2022-07-29T10:23:03;25.60;40.70
31369;DHT22;18004;48.416;10.066;2022-07-29T10:29:45;25.60;39.80
31369;DHT22;18004;48.416;10.066;2022-07-29T10:42:24;25.80;34.70
31369;DHT22;18004;48.416;10.066;2022-07-29T10:44:53;25.70;31.40
31369;DHT22;18004;48.416;10.066;2022-07-29T10:47:27;25.60;35.10
31369;DHT22;18004;48.416;10.066;2022-07-29T10:50:00;25.10;37.00
31369;DHT22;18004;48.416;10.066;2022-07-29T10:52:55;25.00;39.70
31369;DHT22;18004;48.416;10.066;2022-07-29T10:55:39;24.80;41.20
31369;DHT22;18004;48.416;10.066;2022-07-29T10:58:23;24.80;44.80
31369;DHT22;18004;48.416;10.066;2022-07-29T11:00:51;24.80;45.10
31369;DHT22;18004;48.416;10.066;2022-07-29T11:04:14;24.80;48.40
31369;DHT22;18004;48.416;10.066;2022-07-29T11:13:01;25.80;32.30
31369;DHT22;18004;48.416;10.066;2022-07-29T11:15:53;25.90;31.40
31369;DHT22;18004;48.416;10.066;2022-07-29T11:21:37;26.10;26.70
31369;DHT22;18004;48.416;10.066;2022-07-29T11:27:13;25.80;24.80
31369;DHT22;18004;48.416;10.066;2022-07-29T11:29:57;25.70;27.30
31369;DHT22;18004;48.416;10.066;2022-07-29T11:32:38;25.80;25.60
31369;DHT22;18004;48.416;10.066;2022-07-29T11:39:46;25.90;23.50
31369;DHT22;18004;48.416;10.066;2022-07-29T11:45:52;26.10;20.70
31369;DHT22;18004;48.416;10.066;2022-07-29T11:48:55;25.90;22.00
31369;DHT22;18004;48.416;10.066;2022-07-29T11:51:36;26.20;20.80
31369;DHT22;18004;48.416;10.066;2022-07-29T11:54:29;26.10;20.50
31369;DHT22;18004;48.416;10.066;2022-07-29T11:56:59;25.90;19.10
31369;DHT22;18004;48.416;10.066;2022-07-29T11:59:28;25.70;18.70
31369;DHT22;18004;48.416;10.066;2022-07-29T12:02:04;25.60;19.10
31369;DHT22;18004;48.416;10.066;2022-07-29T12:04:47;25.50;17.60
31369;DHT22;18004;48.416;10.066;2022-07-29T12:07:13;25.30;17.60
31369;DHT22;18004;48.416;10.066;2022-07-29T12:09:39;25.40;15.70
31369;DHT22;18004;48.416;10.066;2022-07-29T12:12:05;25.40;16.00
31369;DHT22;18004;48.416;10.066;2022-07-29T12:14:36;25.40;17.10
31369;DHT22;18004;48.416;10.066;2022-07-29T12:17:02;25.50;17.10
31369;DHT22;18004;48.416;10.066;2022-07-29T12:19:28;25.50;18.20
31369;DHT22;18004;48.416;10.066;2022-07-29T12:21:55;25.70;18.40
31369;DHT22;18004;48.416;10.066;2022-07-29T12:27:39;25.90;16.70
31369;DHT22;18004;48.416;10.066;2022-07-29T12:30:14;25.70;16.50
31369;DHT22;18004;48.416;10.066;2022-07-29T12:32:44;25.70;16.70
31369;DHT22;18004;48.416;10.066;2022-07-29T13:09:14;27.50;16.60
31369;DHT22;18004;48.416;10.066;2022-07-29T13:12:18;27.10;17.50
31369;DHT22;18004;48.416;10.066;2022-07-29T13:14:49;27.00;14.70
31369;DHT22;18004;48.416;10.066;2022-07-29T13:17:22;26.60;15.40
31369;DHT22;18004;48.416;10.066;2022-07-29T13:20:07;26.50;15.50
31369;DHT22;18004;48.416;10.066;2022-07-29T13:22:46;25.90;16.50
31369;DHT22;18004;48.416;10.066;2022-07-29T13:27:51;25.50;18.90
31369;DHT22;18004;48.416;10.066;2022-07-29T13:30:20;25.70;16.70
31369;DHT22;18004;48.416;10.066;2022-07-29T13:32:50;25.50;18.40
31369;DHT22;18004;48.416;10.066;2022-07-29T13:35:20;25.40;18.30
31369;DHT22;18004;48.416;10.066;2022-07-29T13:40:56;25.50;16.80
31369;DHT22;18004;48.416;10.066;2022-07-29T13:43:22;25.20;17.90
31369;DHT22;18004;48.416;10.066;2022-07-29T13:45:47;25.00;20.10
31369;DHT22;18004;48.416;10.066;2022-07-29T13:48:13;24.90;17.50
31369;DHT22;18004;48.416;10.066;2022-07-29T13:50:39;24.40;19.70
31369;DHT22;18004;48.416;10.066;2022-07-29T13:53:05;23.20;68.10
31369;DHT22;18004;48.416;10.066;2022-07-29T13:55:30;21.00;91.20
31369;DHT22;18004;48.416;10.066;2022-07-29T13:57:56;17.60;97.70
31369;DHT22;18004;48.416;10.066;2022-07-29T14:00:22;16.80;99.90
31369;DHT22;18004;48.416;10.066;2022-07-29T14:02:49;16.80;99.90
31369;DHT22;18004;48.416;10.066;2022-07-29T14:05:15;17.20;99.90
31369;DHT22;18004;48.416;10.066;2022-07-29T14:07:40;17.10;99.90
31369;DHT22;18004;48.416;10.066;2022-07-29T14:10:07;17.40;99.90
31369;DHT22;18004;48.416;10.066;2022-07-29T14:12:33;17.40;99.90
31369;DHT22;18004;48.416;10.066;2022-07-29T14:14:59;17.80;99.90
31369;DHT22;18004;48.416;10.066;2022-07-29T14:17:24;18.00;99.90
31369;DHT22;18004;48.416;10.066;2022-07-29T14:19:50;18.40;99.90
31369;DHT22;18004;48.416;10.066;2022-07-29T14:22:16;18.50;99.90
31369;DHT22;18004;48.416;10.066;2022-07-29T14:24:44;18.50;99.90
31369;DHT22;18004;48.416;10.066;2022-07-29T14:27:11;18.50;99.90
31369;DHT22;18004;48.416;10.066;2022-07-29T14:29:36;18.50;99.90
31369;DHT22;18004;48.416;10.066;2022-07-29T14:32:03;18.60;99.90
31369;DHT22;18004;48.416;10.066;2022-07-29T14:34:29;18.50;99.90
31369;DHT22;18004;48.416;10.066;2022-07-29T14:36:54;18.30;99.90
31369;DHT22;18004;48.416;10.066;2022-07-29T14:39:24;18.30;99.90
31369;DHT22;18004;48.416;10.066;2022-07-29T14:41:50;18.50;99.90
31369;DHT22;18004;48.416;10.066;2022-07-29T14:44:17;18.50;99.90
31369;DHT22;18004;48.416;10.066;2022-07-29T14:46:43;18.40;99.90
31369;DHT22;18004;48.416;10.066;2022-07-29T14:49:09;18.40;99.90
31369;DHT22;18004;48.416;10.066;2022-07-29T14:51:35;18.50;99.90
31369;DHT22;18004;48.416;10.066;2022-07-29T14:54:01;18.40;99.90
31369;DHT22;18004;48.416;10.066;2022-07-29T14:56:26;18.40;99.90
31369;DHT22;18004;48.416;10.066;2022-07-29T14:58:55;18.50;99.90
31369;DHT22;18004;48.416;10.066;2022-07-29T15:01:21;18.70;99.90
31369;DHT22;18004;48.416;10.066;2022-07-29T15:03:47;18.80;99.90
31369;DHT22;18004;48.416;10.066;2022-07-29T15:06:13;18.90;99.90
31369;DHT22;18004;48.416;10.066;2022-07-29T15:08:39;18.90;99.90
31369;DHT22;18004;48.416;10.066;2022-07-29T15:11:05;19.00;99.90
31369;DHT22;18004;48.416;10.066;2022-07-29T15:13:30;18.90;99.90
31369;DHT22;18004;48.416;10.066;2022-07-29T15:15:56;18.80;99.90
31369;DHT22;18004;48.416;10.066;2022-07-29T15:18:22;18.80;99.90
31369;DHT22;18004;48.416;10.066;2022-07-29T15:20:48;18.90;99.90
31369;DHT22;18004;48.416;10.066;2022-07-29T15:23:13;18.90;99.90
31369;DHT22;18004;48.416;10.066;2022-07-29T15:25:39;19.00;99.90
31369;DHT22;18004;48.416;10.066;2022-07-29T15:28:05;19.00;99.90
31369;DHT22;18004;48.416;10.066;2022-07-29T15:30:35;19.00;99.90
31369;DHT22;18004;48.416;10.066;2022-07-29T15:33:06;19.00;99.90
31369;DHT22;18004;48.416;10.066;2022-07-29T15:35:33;19.00;99.90
31369;DHT22;18004;48.416;10.066;2022-07-29T15:37:59;18.90;99.90
31369;DHT22;18004;48.416;10.066;2022-07-29T15:40:25;19.00;99.90
31369;DHT22;18004;48.416;10.066;2022-07-29T15:42:50;18.90;99.90
31369;DHT22;18004;48.416;10.066;2022-07-29T15:45:16;18.90;99.90
31369;DHT22;18004;48.416;10.066;2022-07-29T15:47:42;18.80;99.90
31369;DHT22;18004;48.416;10.066;2022-07-29T15:50:08;18.90;99.90
31369;DHT22;18004;48.416;10.066;2022-07-29T15:52:38;19.00;99.90
31369;DHT22;18004;48.416;10.066;2022-07-29T15:55:04;19.10;99.90
31369;DHT22;18004;48.416;10.066;2022-07-29T15:57:32;19.10;99.90
31369;DHT22;18004;48.416;10.066;2022-07-29T15:59:57;19.20;99.90
31369;DHT22;18004;48.416;10.066;2022-07-29T16:02:23;19.10;99.90
31369;DHT22;18004;48.416;10.066;2022-07-29T16:04:49;19.10;99.90
31369;DHT22;18004;48.416;10.066;2022-07-29T16:07:15;19.10;99.90
31369;DHT22;18004;48.416;10.066;2022-07-29T16:09:41;19.20;99.90
31369;DHT22;18004;48.416;10.066;2022-07-29T16:12:07;19.20;99.90
31369;DHT22;18004;48.416;10.066;2022-07-29T16:14:33;19.30;99.90
31369;DHT22;18004;48.416;10.066;2022-07-29T16:16:59;19.20;99.90
31369;DHT22;18004;48.416;10.066;2022-07-29T16:19:28;19.30;99.90
31369;DHT22;18004;48.416;10.066;2022-07-29T16:21:54;19.30;99.90
31369;DHT22;18004;48.416;10.066;2022-07-29T16:24:20;19.30;99.90
31369;DHT22;18004;48.416;10.066;2022-07-29T16:26:46;19.10;99.90
31369;DHT22;18004;48.416;10.066;2022-07-29T16:29:12;19.10;99.90
31369;DHT22;18004;48.416;10.066;2022-07-29T16:31:37;19.10;99.90
31369;DHT22;18004;48.416;10.066;2022-07-29T16:34:03;19.10;99.90
31369;DHT22;18004;48.416;10.066;2022-07-29T16:36:29;19.10;99.90
31369;DHT22;18004;48.416;10.066;2022-07-29T16:38:55;19.20;99.90
31369;DHT22;18004;48.416;10.066;2022-07-29T16:41:20;19.30;99.90
31369;DHT22;18004;48.416;10.066;2022-07-29T16:43:46;19.30;99.90
31369;DHT22;18004;48.416;10.066;2022-07-29T16:46:12;19.30;99.90
31369;DHT22;18004;48.416;10.066;2022-07-29T16:48:38;19.30;99.90
31369;DHT22;18004;48.416;10.066;2022-07-29T16:51:05;19.20;99.90
31369;DHT22;18004;48.416;10.066;2022-07-29T16:53:31;19.30;99.90
31369;DHT22;18004;48.416;10.066;2022-07-29T16:55:57;19.30;99.90
31369;DHT22;18004;48.416;10.066;2022-07-29T16:58:22;19.20;99.90
31369;DHT22;18004;48.416;10.066;2022-07-29T17:00:48;19.20;99.90
31369;DHT22;18004;48.416;10.066;2022-07-29T17:03:14;19.30;99.90
31369;DHT22;18004;48.416;10.066;2022-07-29T17:05:40;19.30;99.90
31369;DHT22;18004;48.416;10.066;2022-07-29T17:08:05;19.30;99.90
31369;DHT22;18004;48.416;10.066;2022-07-29T17:10:31;19.30;99.90
31369;DHT22;18004;48.416;10.066;2022-07-29T17:12:57;19.40;99.90
31369;DHT22;18004;48.416;10.066;2022-07-29T17:15:23;19.40;99.90